createdAt,value
2017-12-25T00:02:09.928Z,10.77
2017-12-25T00:04:37.484Z,10.76
2017-12-25T00:07:05.164Z,10.76
2017-12-25T00:09:32.790Z,10.75
2017-12-25T00:12:00.372Z,10.75
2017-12-25T00:14:28.013Z,10.75
2017-12-25T00:16:55.537Z,10.78
2017-12-25T00:19:23.080Z,10.74
2017-12-25T00:21:50.600Z,10.74
2017-12-25T00:24:18.118Z,10.68
2017-12-25T00:26:45.688Z,10.73
2017-12-25T00:29:13.257Z,10.67
2017-12-25T00:31:40.933Z,10.72
2017-12-25T00:34:08.818Z,10.67
2017-12-25T00:36:36.462Z,10.66
2017-12-25T00:39:03.994Z,10.68
2017-12-25T00:41:31.537Z,10.65
2017-12-25T00:43:59.137Z,10.67
2017-12-25T00:46:26.653Z,10.68
2017-12-25T00:48:54.725Z,10.66
2017-12-25T00:51:22.254Z,10.64
2017-12-25T00:53:49.893Z,10.67
2017-12-25T00:56:17.414Z,10.70
2017-12-25T00:58:44.973Z,10.64
2017-12-25T01:01:12.502Z,10.74
2017-12-25T01:03:40.135Z,10.63
2017-12-25T01:06:07.695Z,10.65
2017-12-25T01:08:35.241Z,10.64
2017-12-25T01:11:02.757Z,10.67
2017-12-25T01:13:30.274Z,10.64
2017-12-25T01:15:57.785Z,10.59
2017-12-25T01:18:25.394Z,10.59
2017-12-25T01:20:52.951Z,10.59
2017-12-25T01:23:20.465Z,10.58
2017-12-25T01:25:51.826Z,10.59
2017-12-25T01:28:19.869Z,10.62
2017-12-25T01:30:47.385Z,10.53
2017-12-25T01:33:14.900Z,10.63
2017-12-25T01:35:42.509Z,10.52
2017-12-25T01:38:10.033Z,10.54
2017-12-25T01:40:37.556Z,10.48
2017-12-25T01:43:05.086Z,10.52
2017-12-25T01:45:32.598Z,10.50
2017-12-25T01:48:00.116Z,10.54
2017-12-25T01:50:28.439Z,10.51
2017-12-25T01:52:55.953Z,10.48
2017-12-25T01:55:24.368Z,10.50
2017-12-25T01:57:58.457Z,10.43
2017-12-25T02:00:32.552Z,10.45
2017-12-25T02:03:00.066Z,10.50
2017-12-25T02:05:30.383Z,10.48
2017-12-25T02:08:05.730Z,10.43
2017-12-25T02:10:33.254Z,10.48
2017-12-25T02:13:00.777Z,10.41
2017-12-25T02:15:28.288Z,10.47
2017-12-25T02:17:55.832Z,10.39
2017-12-25T02:20:23.345Z,10.43
2017-12-25T02:22:50.864Z,10.42
2017-12-25T02:25:18.414Z,10.43
2017-12-25T02:27:45.934Z,10.37
2017-12-25T02:30:13.449Z,10.39
2017-12-25T02:32:40.956Z,10.34
2017-12-25T02:35:08.477Z,10.37
2017-12-25T02:37:35.994Z,10.41
2017-12-25T02:40:03.515Z,10.37
2017-12-25T02:42:31.042Z,10.36
2017-12-25T02:44:58.555Z,10.32
2017-12-25T02:47:26.082Z,10.34
2017-12-25T02:49:53.619Z,10.33
2017-12-25T02:52:21.140Z,10.33
2017-12-25T02:54:48.656Z,10.34
2017-12-25T02:57:16.176Z,10.32
2017-12-25T02:59:43.685Z,10.30
2017-12-25T03:02:11.195Z,10.27
2017-12-25T03:04:38.703Z,10.27
2017-12-25T03:07:06.227Z,10.31
2017-12-25T03:09:33.747Z,10.26
2017-12-25T03:12:01.272Z,10.26
2017-12-25T03:14:28.787Z,10.25
2017-12-25T03:16:56.300Z,10.25
2017-12-25T03:19:23.812Z,10.20
2017-12-25T03:21:51.319Z,10.24
2017-12-25T03:24:18.828Z,10.23
2017-12-25T03:26:46.332Z,10.22
2017-12-25T03:29:13.839Z,10.25
2017-12-25T03:31:41.351Z,10.23
2017-12-25T03:34:08.864Z,10.21
2017-12-25T03:36:36.368Z,10.21
2017-12-25T03:39:03.886Z,10.20
2017-12-25T03:41:31.421Z,10.17
2017-12-25T03:43:58.937Z,10.16
2017-12-25T03:46:26.449Z,10.16
2017-12-25T03:48:53.961Z,10.20
2017-12-25T03:51:21.472Z,10.16
2017-12-25T03:53:48.968Z,10.16
2017-12-25T03:56:16.494Z,10.17
2017-12-25T03:58:44.016Z,10.15
2017-12-25T04:01:11.529Z,10.14
2017-12-25T04:03:39.034Z,10.16
2017-12-25T04:06:06.544Z,10.17
2017-12-25T04:08:34.082Z,10.17
2017-12-25T04:11:01.595Z,10.14
2017-12-25T04:13:29.108Z,10.13
2017-12-25T04:15:56.649Z,10.16
2017-12-25T04:18:24.157Z,10.11
2017-12-25T04:20:51.669Z,10.12
2017-12-25T04:23:19.193Z,10.15
2017-12-25T04:25:46.701Z,10.11
2017-12-25T04:28:14.209Z,10.17
2017-12-25T04:30:41.718Z,10.10
2017-12-25T04:33:09.229Z,10.11
2017-12-25T04:35:36.765Z,10.13
2017-12-25T04:38:04.277Z,10.11
2017-12-25T04:40:31.795Z,10.13
2017-12-25T04:42:59.312Z,10.11
2017-12-25T04:45:26.838Z,10.06
2017-12-25T04:47:54.351Z,10.06
2017-12-25T04:50:21.894Z,10.03
2017-12-25T04:52:49.405Z,10.02
2017-12-25T04:55:16.908Z,9.97
2017-12-25T04:57:44.413Z,9.96
2017-12-25T05:00:11.912Z,9.98
2017-12-25T05:02:39.421Z,9.96
2017-12-25T05:05:06.936Z,9.93
2017-12-25T05:07:34.448Z,9.93
2017-12-25T05:10:01.967Z,9.93
2017-12-25T05:12:29.474Z,9.94
2017-12-25T05:14:56.977Z,9.95
2017-12-25T05:17:24.489Z,9.97
2017-12-25T05:19:51.993Z,9.94
2017-12-25T05:22:19.525Z,9.96
2017-12-25T05:24:47.057Z,9.84
2017-12-25T05:27:14.575Z,9.90
2017-12-25T05:29:42.082Z,9.93
2017-12-25T05:32:09.601Z,9.91
2017-12-25T05:34:37.112Z,9.91
2017-12-25T05:37:04.616Z,9.95
2017-12-25T05:39:32.116Z,9.91
2017-12-25T05:41:59.629Z,9.94
2017-12-25T05:44:27.133Z,9.92
2017-12-25T05:46:54.649Z,9.82
2017-12-25T05:49:22.166Z,9.86
2017-12-25T05:51:49.665Z,9.87
2017-12-25T05:54:17.172Z,9.88
2017-12-25T05:56:44.690Z,9.83
2017-12-25T05:59:12.202Z,9.81
2017-12-25T06:01:39.709Z,9.88
2017-12-25T06:04:07.221Z,9.85
2017-12-25T06:06:34.721Z,9.89
2017-12-25T06:09:02.220Z,9.79
2017-12-25T06:11:29.730Z,9.83
2017-12-25T06:13:57.228Z,9.86
2017-12-25T06:16:24.747Z,9.84
2017-12-25T06:18:52.249Z,9.81
2017-12-25T06:21:19.752Z,9.82
2017-12-25T06:23:47.260Z,9.85
2017-12-25T06:26:14.777Z,9.85
2017-12-25T06:28:42.313Z,9.89
2017-12-25T06:31:09.822Z,9.90
2017-12-25T06:33:37.326Z,9.83
2017-12-25T06:36:04.850Z,9.86
2017-12-25T06:38:32.361Z,9.91
2017-12-25T06:40:59.869Z,9.84
2017-12-25T06:43:27.381Z,9.89
2017-12-25T06:45:54.889Z,9.89
2017-12-25T06:48:22.396Z,9.89
2017-12-25T06:50:49.913Z,9.86
2017-12-25T06:53:17.417Z,9.88
2017-12-25T06:55:44.938Z,9.87
2017-12-25T06:58:12.452Z,9.83
2017-12-25T07:00:39.957Z,9.86
2017-12-25T07:03:07.474Z,9.86
2017-12-25T07:05:34.992Z,9.86
2017-12-25T07:08:02.498Z,9.86
2017-12-25T07:10:29.993Z,9.88
2017-12-25T07:12:57.517Z,9.87
2017-12-25T07:15:25.034Z,9.83
2017-12-25T07:17:52.536Z,9.90
2017-12-25T07:20:20.050Z,9.91
2017-12-25T07:22:47.556Z,9.97
2017-12-25T07:25:15.072Z,9.91
2017-12-25T07:27:42.577Z,9.92
2017-12-25T07:30:10.076Z,9.92
2017-12-25T07:32:37.578Z,9.95
2017-12-25T07:35:05.085Z,9.94
2017-12-25T07:37:32.594Z,9.91
2017-12-25T07:40:00.102Z,9.91
2017-12-25T07:42:27.613Z,9.93
2017-12-25T07:44:55.117Z,9.95
2017-12-25T07:47:22.632Z,9.94
2017-12-25T07:49:50.136Z,9.89
2017-12-25T07:52:17.635Z,9.92
2017-12-25T07:54:45.150Z,9.94
2017-12-25T07:57:12.654Z,9.97
2017-12-25T07:59:40.162Z,9.98
2017-12-25T08:02:07.672Z,9.96
2017-12-25T08:04:35.173Z,9.98
2017-12-25T08:07:02.682Z,9.97
2017-12-25T08:09:30.190Z,10.01
2017-12-25T08:11:57.712Z,10.03
2017-12-25T08:14:25.229Z,10.01
2017-12-25T08:16:52.740Z,10.01
2017-12-25T08:19:20.244Z,10.05
2017-12-25T08:21:47.757Z,9.98
2017-12-25T08:24:15.274Z,10.00
2017-12-25T08:26:42.781Z,10.05
2017-12-25T08:29:10.296Z,10.01
2017-12-25T08:31:37.830Z,10.03
2017-12-25T08:34:05.341Z,10.04
2017-12-25T08:36:32.852Z,10.05
2017-12-25T08:39:00.368Z,10.01
2017-12-25T08:41:27.872Z,10.06
2017-12-25T08:43:55.395Z,10.09
2017-12-25T08:46:22.916Z,10.07
2017-12-25T08:48:50.442Z,10.09
2017-12-25T08:51:17.965Z,10.11
2017-12-25T08:53:45.487Z,10.10
2017-12-25T08:56:12.999Z,10.21
2017-12-25T08:58:40.504Z,10.16
2017-12-25T09:01:08.020Z,10.16
2017-12-25T09:03:35.520Z,10.25
2017-12-25T09:06:03.025Z,10.21
2017-12-25T09:08:30.537Z,10.21
2017-12-25T09:10:58.042Z,10.27
2017-12-25T09:13:25.566Z,10.20
2017-12-25T09:15:53.080Z,10.23
2017-12-25T09:18:20.593Z,10.26
2017-12-25T09:20:48.106Z,10.22
2017-12-25T09:23:15.617Z,10.24
2017-12-25T09:25:43.125Z,10.24
2017-12-25T09:28:10.645Z,10.25
2017-12-25T09:30:38.158Z,10.25
2017-12-25T09:33:05.673Z,10.22
2017-12-25T09:35:33.195Z,10.25
2017-12-25T09:38:00.709Z,10.32
2017-12-25T09:40:28.230Z,10.28
2017-12-25T09:42:55.735Z,10.28
2017-12-25T09:45:23.253Z,10.29
2017-12-25T09:47:50.756Z,10.35
2017-12-25T09:50:18.261Z,10.38
2017-12-25T09:52:45.760Z,10.41
2017-12-25T09:55:13.269Z,10.34
2017-12-25T09:57:40.787Z,10.37
2017-12-25T10:00:08.313Z,10.36
2017-12-25T10:02:35.821Z,10.32
2017-12-25T10:05:03.409Z,10.29
2017-12-25T10:07:30.925Z,10.23
2017-12-25T10:09:58.425Z,10.33
2017-12-25T10:12:25.945Z,10.36
2017-12-25T10:14:53.451Z,10.29
2017-12-25T10:17:21.005Z,10.32
2017-12-25T10:19:48.527Z,10.31
2017-12-25T10:22:16.047Z,10.28
2017-12-25T10:24:43.553Z,10.37
2017-12-25T10:27:11.056Z,10.38
2017-12-25T10:29:38.592Z,10.43
2017-12-25T10:32:06.129Z,10.51
2017-12-25T10:34:33.638Z,10.47
2017-12-25T10:37:01.145Z,10.33
2017-12-25T10:39:28.692Z,10.44
2017-12-25T10:41:56.199Z,10.35
2017-12-25T10:44:23.720Z,10.38
2017-12-25T10:46:51.333Z,10.42
2017-12-25T10:49:18.839Z,10.43
2017-12-25T10:51:46.359Z,10.35
2017-12-25T10:54:13.891Z,10.23
2017-12-25T10:56:41.423Z,10.28
2017-12-25T10:59:08.937Z,10.32
2017-12-25T11:04:03.237Z,10.26
2017-12-25T11:06:30.748Z,10.29
2017-12-25T11:08:58.253Z,10.34
2017-12-25T11:11:25.756Z,10.31
2017-12-25T11:13:53.270Z,10.34
2017-12-25T11:16:20.790Z,10.34
2017-12-25T11:18:48.303Z,10.31
2017-12-25T11:21:15.818Z,10.35
2017-12-25T11:23:43.383Z,10.45
2017-12-25T11:26:10.940Z,10.40
2017-12-25T11:28:38.496Z,10.29
2017-12-25T11:31:06.049Z,10.18
2017-12-25T11:33:33.554Z,10.30
2017-12-25T11:36:01.168Z,10.25
2017-12-25T11:38:28.673Z,10.30
2017-12-25T11:40:56.198Z,10.27
2017-12-25T11:43:23.726Z,10.21
2017-12-25T11:45:51.247Z,10.27
2017-12-25T11:48:18.774Z,10.35
2017-12-25T11:50:46.286Z,10.22
2017-12-25T11:53:13.810Z,10.18
2017-12-25T11:55:41.328Z,10.21
2017-12-25T11:58:08.840Z,10.18
2017-12-25T12:00:36.357Z,10.19
2017-12-25T12:03:03.898Z,10.16
2017-12-25T12:05:31.412Z,10.15
2017-12-25T12:07:58.963Z,10.24
2017-12-25T12:10:26.476Z,10.23
2017-12-25T12:12:53.993Z,10.14
2017-12-25T12:15:21.510Z,10.18
2017-12-25T12:17:49.024Z,10.24
2017-12-25T12:20:16.525Z,10.27
2017-12-25T12:22:44.036Z,10.20
2017-12-25T12:25:11.545Z,10.22
2017-12-25T12:27:39.067Z,10.23
2017-12-25T12:30:06.595Z,10.23
2017-12-25T12:32:34.123Z,10.17
2017-12-25T12:35:01.649Z,10.16
2017-12-25T12:37:29.179Z,10.10
2017-12-25T12:39:56.689Z,10.08
2017-12-25T12:42:24.337Z,10.16
2017-12-25T12:44:51.963Z,10.10
2017-12-25T12:47:19.514Z,10.13
2017-12-25T12:49:47.100Z,10.11
2017-12-25T12:52:14.643Z,10.08
2017-12-25T12:54:42.153Z,10.05
2017-12-25T12:57:09.661Z,10.03
2017-12-25T12:59:37.184Z,10.00
2017-12-25T13:02:04.759Z,10.03
2017-12-25T13:04:32.444Z,10.06
2017-12-25T13:07:00.148Z,9.97
2017-12-25T13:09:27.824Z,10.00
2017-12-25T13:11:55.375Z,9.99
2017-12-25T13:14:22.920Z,9.99
2017-12-25T13:16:50.428Z,9.96
2017-12-25T13:19:17.933Z,9.92
2017-12-25T13:21:45.461Z,9.94
2017-12-25T13:24:13.031Z,9.96
2017-12-25T13:26:40.602Z,9.94
2017-12-25T13:29:08.319Z,9.84
2017-12-25T13:31:35.977Z,9.86
2017-12-25T13:34:05.109Z,9.86
2017-12-25T13:36:32.746Z,9.92
2017-12-25T13:39:00.304Z,9.90
2017-12-25T13:41:27.936Z,9.88
2017-12-25T13:43:55.513Z,9.86
2017-12-25T13:46:23.099Z,9.85
2017-12-25T13:48:50.651Z,9.81
2017-12-25T13:51:18.152Z,9.80
2017-12-25T13:53:45.648Z,9.85
2017-12-25T13:56:13.160Z,9.80
2017-12-25T13:58:40.937Z,9.83
2017-12-25T14:01:08.476Z,9.74
2017-12-25T14:03:36.077Z,9.79
2017-12-25T14:06:03.774Z,9.77
2017-12-25T14:08:31.307Z,9.78
2017-12-25T14:10:58.814Z,9.76
2017-12-25T14:13:26.322Z,9.72
2017-12-25T14:15:53.862Z,9.73
2017-12-25T14:18:21.441Z,9.75
2017-12-25T14:20:49.132Z,9.73
2017-12-25T14:23:16.701Z,9.62
2017-12-25T14:25:44.287Z,9.69
2017-12-25T14:28:11.838Z,9.70
2017-12-25T14:30:39.342Z,9.64
2017-12-25T14:33:06.921Z,9.62
2017-12-25T14:35:34.445Z,9.63
2017-12-25T14:38:02.072Z,9.63
2017-12-25T14:40:29.796Z,9.60
2017-12-25T14:42:57.532Z,9.57
2017-12-25T14:45:25.159Z,9.52
2017-12-25T14:47:52.711Z,9.58
2017-12-25T14:50:20.295Z,9.57
2017-12-25T14:52:47.806Z,9.49
2017-12-25T14:55:15.367Z,9.56
2017-12-25T14:57:42.901Z,9.51
2017-12-25T15:00:10.411Z,9.50
2017-12-25T15:02:38.012Z,9.42
2017-12-25T15:05:05.692Z,9.43
2017-12-25T15:07:33.332Z,9.45
2017-12-25T15:10:00.839Z,9.49
2017-12-25T15:12:28.417Z,9.48
2017-12-25T15:14:55.936Z,9.43
2017-12-25T15:17:23.445Z,9.43
2017-12-25T15:19:50.944Z,9.40
2017-12-25T15:22:18.468Z,9.41
2017-12-25T15:24:46.204Z,9.39
2017-12-25T15:27:13.745Z,9.36
2017-12-25T15:29:41.258Z,9.38
2017-12-25T15:32:08.769Z,9.33
2017-12-25T15:34:36.439Z,9.34
2017-12-25T15:37:04.113Z,9.32
2017-12-25T15:39:31.765Z,9.31
2017-12-25T15:41:59.328Z,9.28
2017-12-25T15:44:26.833Z,9.19
2017-12-25T15:46:54.341Z,9.23
2017-12-25T15:49:22.021Z,9.17
2017-12-25T15:51:49.564Z,9.27
2017-12-25T15:54:17.098Z,9.26
2017-12-25T15:56:44.609Z,9.23
2017-12-25T15:59:12.270Z,9.22
2017-12-25T16:01:39.792Z,9.17
2017-12-25T16:04:07.338Z,9.18
2017-12-25T16:06:34.862Z,9.16
2017-12-25T16:09:02.469Z,9.19
2017-12-25T16:11:29.992Z,9.14
2017-12-25T16:13:57.521Z,9.14
2017-12-25T16:16:25.021Z,9.15
2017-12-25T16:18:52.550Z,9.12
2017-12-25T16:21:20.093Z,9.14
2017-12-25T16:23:47.631Z,9.12
2017-12-25T16:26:15.196Z,9.12
2017-12-25T16:28:42.818Z,9.11
2017-12-25T16:33:37.126Z,9.08
2017-12-25T16:36:04.639Z,9.06
2017-12-25T16:38:32.140Z,9.06
2017-12-25T16:40:59.708Z,9.01
2017-12-25T16:43:27.339Z,9.07
2017-12-25T16:45:54.879Z,9.03
2017-12-25T16:48:22.418Z,9.05
2017-12-25T16:50:49.952Z,9.10
2017-12-25T16:53:17.557Z,9.04
2017-12-25T16:55:45.099Z,9.00
2017-12-25T16:58:12.781Z,9.01
2017-12-25T17:00:40.424Z,8.99
2017-12-25T17:03:07.994Z,9.00
2017-12-25T17:05:35.533Z,9.01
2017-12-25T17:08:03.043Z,8.92
2017-12-25T17:10:30.574Z,8.96
2017-12-25T17:12:58.104Z,8.91
2017-12-25T17:15:25.837Z,8.92
2017-12-25T17:17:53.525Z,8.89
2017-12-25T17:20:21.033Z,8.92
2017-12-25T17:22:48.541Z,8.89
2017-12-25T17:25:16.065Z,8.86
2017-12-25T17:27:43.591Z,8.86
2017-12-25T17:30:11.104Z,8.86
2017-12-25T17:32:38.808Z,8.81
2017-12-25T17:35:06.419Z,8.81
2017-12-25T17:37:33.979Z,8.78
2017-12-25T17:40:01.514Z,8.74
2017-12-25T17:42:29.030Z,8.70
2017-12-25T17:44:56.568Z,8.75
2017-12-25T17:47:24.149Z,8.64
2017-12-25T17:49:51.816Z,8.68
2017-12-25T17:52:19.393Z,8.67
2017-12-25T17:54:46.990Z,8.70
2017-12-25T17:57:14.541Z,8.63
2017-12-25T17:59:42.046Z,8.59
2017-12-25T18:02:09.563Z,8.60
2017-12-25T18:04:37.078Z,8.59
2017-12-25T18:07:04.801Z,8.59
2017-12-25T18:09:32.621Z,8.54
2017-12-25T18:12:00.282Z,8.58
2017-12-25T18:14:27.821Z,8.47
2017-12-25T18:16:55.412Z,8.57
2017-12-25T18:19:22.924Z,8.57
2017-12-25T18:21:50.517Z,8.51
2017-12-25T18:24:18.127Z,8.45
2017-12-25T18:26:45.625Z,8.47
2017-12-25T18:29:13.130Z,8.45
2017-12-25T18:31:40.685Z,8.46
2017-12-25T18:34:08.188Z,8.44
2017-12-25T18:36:35.755Z,8.47
2017-12-25T18:39:03.391Z,8.39
2017-12-25T18:41:31.063Z,8.42
2017-12-25T18:43:58.647Z,8.40
2017-12-25T18:46:26.190Z,8.39
2017-12-25T18:48:53.725Z,8.38
2017-12-25T18:51:21.236Z,8.36
2017-12-25T18:53:48.782Z,8.32
2017-12-25T18:56:16.449Z,8.39
2017-12-25T18:58:44.053Z,8.30
2017-12-25T19:01:11.761Z,8.29
2017-12-25T19:03:39.280Z,8.29
2017-12-25T19:06:06.810Z,8.32
2017-12-25T19:08:35.236Z,8.29
2017-12-25T19:11:02.858Z,8.26
2017-12-25T19:13:30.563Z,8.24
2017-12-25T19:15:58.240Z,8.22
2017-12-25T19:18:25.821Z,8.26
2017-12-25T19:20:53.329Z,8.31
2017-12-25T19:23:20.896Z,8.20
2017-12-25T19:25:48.515Z,8.26
2017-12-25T19:28:16.044Z,8.37
2017-12-25T19:30:43.646Z,8.35
2017-12-25T19:33:12.111Z,8.35
2017-12-25T19:35:39.620Z,8.36
2017-12-25T19:38:07.222Z,8.33
2017-12-25T19:40:34.796Z,8.29
2017-12-25T19:43:02.300Z,8.26
2017-12-25T19:45:29.918Z,8.29
2017-12-25T19:47:57.429Z,8.31
2017-12-25T19:50:24.961Z,8.34
2017-12-25T19:52:52.479Z,8.28
2017-12-25T19:55:20.057Z,8.32
2017-12-25T19:57:47.615Z,8.35
2017-12-25T20:00:15.137Z,8.28
2017-12-25T20:02:42.654Z,8.30
2017-12-25T20:05:10.170Z,8.22
2017-12-25T20:07:37.747Z,8.20
2017-12-25T20:10:05.257Z,8.20
2017-12-25T20:12:32.875Z,8.22
2017-12-25T20:15:00.398Z,8.23
2017-12-25T20:17:27.926Z,8.24
2017-12-25T20:19:55.559Z,8.23
2017-12-25T20:22:23.221Z,8.21
2017-12-25T20:24:51.318Z,8.16
2017-12-25T20:27:18.877Z,8.20
2017-12-25T20:29:46.504Z,8.23
2017-12-25T20:32:14.009Z,8.14
2017-12-25T20:34:41.509Z,8.22
2017-12-25T20:37:09.033Z,8.08
2017-12-25T20:39:36.551Z,8.12
2017-12-25T20:42:04.086Z,8.14
2017-12-25T20:44:31.590Z,8.03
2017-12-25T20:46:59.105Z,8.03
2017-12-25T20:49:26.606Z,8.05
2017-12-25T20:51:54.111Z,8.02
2017-12-25T20:54:21.648Z,8.04
2017-12-25T20:56:49.170Z,7.98
2017-12-25T20:59:16.683Z,7.99
2017-12-25T21:01:44.916Z,7.83
2017-12-25T21:04:12.425Z,7.88
2017-12-25T21:06:40.376Z,7.92
2017-12-25T21:09:07.886Z,7.89
2017-12-25T21:11:35.445Z,7.85
2017-12-25T21:14:02.988Z,7.87
2017-12-25T21:16:31.450Z,7.84
2017-12-25T21:18:58.964Z,7.79
2017-12-25T21:21:26.491Z,7.77
2017-12-25T21:23:54.493Z,7.81
2017-12-25T21:26:21.998Z,7.81
2017-12-25T21:28:49.513Z,7.66
2017-12-25T21:31:17.142Z,7.65
2017-12-25T21:33:44.662Z,7.68
2017-12-25T21:36:12.161Z,7.69
2017-12-25T21:38:39.667Z,7.56
2017-12-25T21:41:07.201Z,7.59
2017-12-25T21:43:34.705Z,7.46
2017-12-25T21:46:02.284Z,7.37
2017-12-25T21:48:29.789Z,7.31
2017-12-25T21:50:57.291Z,7.25
2017-12-25T21:53:24.797Z,7.04
2017-12-25T21:55:52.302Z,7.01
2017-12-25T21:58:19.864Z,7.01
2017-12-25T22:00:47.516Z,6.91
2017-12-25T22:03:15.073Z,6.91
2017-12-25T22:05:42.576Z,6.77
2017-12-25T22:08:10.269Z,6.70
2017-12-25T22:10:37.777Z,6.58
2017-12-25T22:13:05.281Z,6.46
2017-12-25T22:15:32.793Z,6.49
2017-12-25T22:18:00.369Z,6.36
2017-12-25T22:20:28.032Z,6.30
2017-12-25T22:22:55.586Z,6.31
2017-12-25T22:25:23.092Z,6.28
2017-12-25T22:27:50.606Z,6.20
2017-12-25T22:30:18.178Z,5.99
2017-12-25T22:32:45.705Z,6.03
2017-12-25T22:35:13.357Z,6.01
2017-12-25T22:37:40.874Z,6.01
2017-12-25T22:40:08.521Z,5.96
2017-12-25T22:42:36.160Z,5.92
2017-12-25T22:45:03.656Z,5.83
2017-12-25T22:47:31.399Z,5.89
2017-12-25T22:49:58.932Z,5.81
2017-12-25T22:52:26.465Z,5.76
2017-12-25T22:54:54.006Z,5.76
2017-12-25T22:57:21.636Z,5.69
2017-12-25T22:59:49.612Z,5.51
2017-12-25T23:02:17.173Z,5.55
2017-12-25T23:04:44.697Z,5.47
2017-12-25T23:07:12.294Z,5.43
2017-12-25T23:09:39.917Z,5.41
2017-12-25T23:12:07.513Z,5.42
2017-12-25T23:14:35.037Z,5.35
2017-12-25T23:17:02.628Z,5.27
2017-12-25T23:19:30.297Z,5.22
2017-12-25T23:21:58.266Z,5.25
2017-12-25T23:24:25.773Z,5.15
2017-12-25T23:26:53.510Z,5.17
2017-12-25T23:29:21.016Z,5.19
2017-12-25T23:31:48.533Z,5.19
2017-12-25T23:34:16.154Z,5.11
2017-12-25T23:36:43.770Z,5.10
2017-12-25T23:39:11.469Z,4.98
2017-12-25T23:41:38.977Z,4.91
2017-12-25T23:44:06.498Z,4.89
2017-12-25T23:46:34.022Z,4.95
2017-12-25T23:49:01.583Z,5.00
2017-12-25T23:51:29.096Z,4.88
2017-12-25T23:53:56.643Z,4.86
2017-12-25T23:56:24.192Z,4.88
2017-12-25T23:58:51.695Z,4.74
